sensor_id;sensor_type;location;lat;lon;timestamp;pressure;altitude;pressure_sealevel;temperature;humidity
19600;BME280;9947;57.722;12.012;2023-02-11T00:01:58;100667.66;;;6.42;100.00
19600;BME280;9947;57.722;12.012;2023-02-11T00:04:32;100660.84;;;6.36;100.00
19600;BME280;9947;57.722;12.012;2023-02-11T00:06:59;100660.28;;;6.31;100.00
19600;BME280;9947;57.722;12.012;2023-02-11T00:09:34;100650.41;;;6.32;100.00
19600;BME280;9947;57.722;12.012;2023-02-11T00:12:00;100645.97;;;6.31;100.00
19600;BME280;9947;57.722;12.012;2023-02-11T00:14:41;100639.56;;;6.33;100.00
19600;BME280;9947;57.722;12.012;2023-02-11T00:17:08;100652.13;;;6.33;100.00
19600;BME280;9947;57.722;12.012;2023-02-11T00:19:42;100613.59;;;6.34;100.00
19600;BME280;9947;57.722;12.012;2023-02-11T00:22:09;100647.16;;;6.41;100.00
19600;BME280;9947;57.722;12.012;2023-02-11T00:24:44;100646.56;;;6.36;100.00
19600;BME280;9947;57.722;12.012;2023-02-11T00:27:17;100632.09;;;6.38;100.00
19600;BME280;9947;57.722;12.012;2023-02-11T00:29:50;100622.97;;;6.41;100.00
19600;BME280;9947;57.722;12.012;2023-02-11T00:32:19;100590.38;;;6.33;100.00
19600;BME280;9947;57.722;12.012;2023-02-11T00:34:52;100622.41;;;6.36;100.00
19600;BME280;9947;57.722;12.012;2023-02-11T00:37:20;100622.97;;;6.41;100.00
19600;BME280;9947;57.722;12.012;2023-02-11T00:39:55;100631.03;;;6.41;100.00
19600;BME280;9947;57.722;12.012;2023-02-11T00:42:22;100622.31;;;6.37;100.00
19600;BME280;9947;57.722;12.012;2023-02-11T00:44:55;100615.22;;;6.36;100.00
19600;BME280;9947;57.722;12.012;2023-02-11T00:47:22;100611.47;;;6.39;100.00
19600;BME280;9947;57.722;12.012;2023-02-11T00:49:55;100598.91;;;6.39;100.00
19600;BME280;9947;57.722;12.012;2023-02-11T00:52:29;100607.16;;;6.36;100.00
19600;BME280;9947;57.722;12.012;2023-02-11T00:55:04;100595.25;;;6.40;100.00
19600;BME280;9947;57.722;12.012;2023-02-11T00:57:38;100611.38;;;6.40;100.00
19600;BME280;9947;57.722;12.012;2023-02-11T01:00:12;100585.88;;;6.33;100.00
19600;BME280;9947;57.722;12.012;2023-02-11T01:02:40;100567.56;;;6.26;100.00
19600;BME280;9947;57.722;12.012;2023-02-11T01:05:13;100547.09;;;6.23;100.00
19600;BME280;9947;57.722;12.012;2023-02-11T01:07:40;100558.03;;;6.20;100.00
19600;BME280;9947;57.722;12.012;2023-02-11T01:10:15;100570.78;;;6.16;100.00
19600;BME280;9947;57.722;12.012;2023-02-11T01:12:48;100560.53;;;6.23;100.00
19600;BME280;9947;57.722;12.012;2023-02-11T01:15:23;100563.69;;;6.15;100.00
19600;BME280;9947;57.722;12.012;2023-02-11T01:17:56;100577.69;;;6.21;100.00
19600;BME280;9947;57.722;12.012;2023-02-11T01:20:30;100577.69;;;6.21;100.00
19600;BME280;9947;57.722;12.012;2023-02-11T01:23:00;100586.50;;;6.23;100.00
19600;BME280;9947;57.722;12.012;2023-02-11T01:25:35;100591.63;;;6.27;100.00
19600;BME280;9947;57.722;12.012;2023-02-11T01:28:02;100580.88;;;6.27;100.00
19600;BME280;9947;57.722;12.012;2023-02-11T01:30:35;100576.81;;;6.20;100.00
19600;BME280;9947;57.722;12.012;2023-02-11T01:33:02;100580.66;;;6.16;100.00
19600;BME280;9947;57.722;12.012;2023-02-11T01:35:36;100576.34;;;6.13;100.00
19600;BME280;9947;57.722;12.012;2023-02-11T01:38:04;100522.84;;;6.10;100.00
19600;BME280;9947;57.722;12.012;2023-02-11T01:40:39;100581.03;;;6.10;100.00
19600;BME280;9947;57.722;12.012;2023-02-11T01:43:06;100576.63;;;6.09;100.00
19600;BME280;9947;57.722;12.012;2023-02-11T01:46:01;100549.97;;;6.06;100.00
19600;BME280;9947;57.722;12.012;2023-02-11T01:48:39;100541.34;;;6.01;100.00
19600;BME280;9947;57.722;12.012;2023-02-11T01:51:17;100534.16;;;6.01;100.00
19600;BME280;9947;57.722;12.012;2023-02-11T01:53:47;100577.25;;;5.98;100.00
19600;BME280;9947;57.722;12.012;2023-02-11T01:56:43;100587.13;;;5.98;100.00
19600;BME280;9947;57.722;12.012;2023-02-11T01:59:40;100578.22;;;5.97;100.00
19600;BME280;9947;57.722;12.012;2023-02-11T02:02:14;100585.50;;;5.95;100.00
19600;BME280;9947;57.722;12.012;2023-02-11T02:04:52;100593.34;;;5.98;100.00
19600;BME280;9947;57.722;12.012;2023-02-11T02:07:29;100602.31;;;5.99;100.00
19600;BME280;9947;57.722;12.012;2023-02-11T02:10:11;100592.34;;;6.01;100.00
19600;BME280;9947;57.722;12.012;2023-02-11T02:12:47;100594.06;;;6.02;100.00
19600;BME280;9947;57.722;12.012;2023-02-11T02:15:31;100595.59;;;6.06;100.00
19600;BME280;9947;57.722;12.012;2023-02-11T02:18:23;100603.28;;;6.12;100.00
19600;BME280;9947;57.722;12.012;2023-02-11T02:21:18;100598.47;;;6.17;100.00
19600;BME280;9947;57.722;12.012;2023-02-11T02:24:07;100597.03;;;6.11;100.00
19600;BME280;9947;57.722;12.012;2023-02-11T02:33:03;100587.38;;;6.09;100.00
19600;BME280;9947;57.722;12.012;2023-02-11T02:35:42;100579.22;;;6.10;100.00
19600;BME280;9947;57.722;12.012;2023-02-11T02:38:23;100582.19;;;6.06;100.00
19600;BME280;9947;57.722;12.012;2023-02-11T02:40:55;100566.19;;;6.04;100.00
19600;BME280;9947;57.722;12.012;2023-02-11T02:43:31;100572.41;;;6.05;100.00
19600;BME280;9947;57.722;12.012;2023-02-11T02:46:10;100565.31;;;6.04;100.00
19600;BME280;9947;57.722;12.012;2023-02-11T02:48:47;100560.63;;;6.07;100.00
19600;BME280;9947;57.722;12.012;2023-02-11T02:51:30;100537.44;;;6.06;100.00
19600;BME280;9947;57.722;12.012;2023-02-11T02:54:23;100540.31;;;6.03;100.00
19600;BME280;9947;57.722;12.012;2023-02-11T02:57:11;100542.78;;;6.06;100.00
19600;BME280;9947;57.722;12.012;2023-02-11T02:59:48;100555.34;;;6.06;100.00
19600;BME280;9947;57.722;12.012;2023-02-11T03:02:26;100572.31;;;6.06;100.00
19600;BME280;9947;57.722;12.012;2023-02-11T03:05:07;100581.03;;;6.10;100.00
19600;BME280;9947;57.722;12.012;2023-02-11T03:07:48;100575.84;;;6.07;100.00
19600;BME280;9947;57.722;12.012;2023-02-11T03:10:27;100580.06;;;6.11;100.00
19600;BME280;9947;57.722;12.012;2023-02-11T03:13:04;100572.22;;;6.22;100.00
19600;BME280;9947;57.722;12.012;2023-02-11T03:15:43;100550.28;;;6.15;100.00
19600;BME280;9947;57.722;12.012;2023-02-11T03:18:20;100560.03;;;6.16;100.00
19600;BME280;9947;57.722;12.012;2023-02-11T03:20:51;100583.06;;;6.21;100.00
19600;BME280;9947;57.722;12.012;2023-02-11T03:23:28;100578.84;;;6.16;100.00
19600;BME280;9947;57.722;12.012;2023-02-11T03:25:59;100567.91;;;6.19;100.00
19600;BME280;9947;57.722;12.012;2023-02-11T03:28:43;100528.13;;;6.12;100.00
19600;BME280;9947;57.722;12.012;2023-02-11T03:31:17;100551.41;;;6.11;100.00
19600;BME280;9947;57.722;12.012;2023-02-11T03:33:57;100557.06;;;6.07;100.00
19600;BME280;9947;57.722;12.012;2023-02-11T03:36:31;100551.72;;;6.07;100.00
19600;BME280;9947;57.722;12.012;2023-02-11T03:39:19;100573.06;;;6.08;100.00
19600;BME280;9947;57.722;12.012;2023-02-11T03:41:48;100566.09;;;6.06;100.00
19600;BME280;9947;57.722;12.012;2023-02-11T03:44:28;100554.69;;;6.02;100.00
19600;BME280;9947;57.722;12.012;2023-02-11T03:46:56;100558.31;;;6.01;100.00
19600;BME280;9947;57.722;12.012;2023-02-11T03:49:31;100561.69;;;6.05;100.00
19600;BME280;9947;57.722;12.012;2023-02-11T03:52:03;100566.66;;;6.11;100.00
19600;BME280;9947;57.722;12.012;2023-02-11T03:54:40;100576.63;;;6.09;100.00
19600;BME280;9947;57.722;12.012;2023-02-11T03:57:09;100563.88;;;6.12;100.00
19600;BME280;9947;57.722;12.012;2023-02-11T03:59:50;100558.59;;;6.11;100.00
19600;BME280;9947;57.722;12.012;2023-02-11T04:02:17;100561.38;;;6.09;100.00
19600;BME280;9947;57.722;12.012;2023-02-11T04:04:51;100550.84;;;6.06;100.00
19600;BME280;9947;57.722;12.012;2023-02-11T04:07:20;100540.09;;;6.06;100.00
19600;BME280;9947;57.722;12.012;2023-02-11T04:09:53;100497.28;;;6.05;100.00
19600;BME280;9947;57.722;12.012;2023-02-11T04:12:20;100503.88;;;5.99;100.00
19600;BME280;9947;57.722;12.012;2023-02-11T04:14:54;100508.38;;;5.99;100.00
19600;BME280;9947;57.722;12.012;2023-02-11T04:17:21;100490.72;;;5.95;100.00
19600;BME280;9947;57.722;12.012;2023-02-11T04:19:54;100487.47;;;5.90;100.00
19600;BME280;9947;57.722;12.012;2023-02-11T04:22:23;100492.41;;;5.81;100.00
19600;BME280;9947;57.722;12.012;2023-02-11T04:25:04;100536.47;;;5.77;100.00
19600;BME280;9947;57.722;12.012;2023-02-11T04:27:31;100581.13;;;5.78;100.00
19600;BME280;9947;57.722;12.012;2023-02-11T04:30:05;100554.78;;;5.85;100.00
19600;BME280;9947;57.722;12.012;2023-02-11T04:32:33;100560.16;;;5.85;100.00
19600;BME280;9947;57.722;12.012;2023-02-11T04:35:07;100570.78;;;5.86;100.00
19600;BME280;9947;57.722;12.012;2023-02-11T04:37:35;100583.00;;;5.92;100.00
19600;BME280;9947;57.722;12.012;2023-02-11T04:40:09;100580.03;;;5.97;100.00
19600;BME280;9947;57.722;12.012;2023-02-11T04:42:36;100579.94;;;5.98;100.00
19600;BME280;9947;57.722;12.012;2023-02-11T04:45:09;100546.66;;;5.86;100.00
19600;BME280;9947;57.722;12.012;2023-02-11T04:47:36;100556.59;;;5.84;100.00
19600;BME280;9947;57.722;12.012;2023-02-11T04:50:10;100570.69;;;5.88;100.00
19600;BME280;9947;57.722;12.012;2023-02-11T04:52:39;100583.63;;;5.81;100.00
19600;BME280;9947;57.722;12.012;2023-02-11T04:55:12;100551.81;;;5.75;100.00
19600;BME280;9947;57.722;12.012;2023-02-11T04:57:39;100567.75;;;5.93;100.00
19600;BME280;9947;57.722;12.012;2023-02-11T05:00:13;100607.06;;;5.94;100.00
19600;BME280;9947;57.722;12.012;2023-02-11T05:02:40;100615.81;;;5.81;100.00
19600;BME280;9947;57.722;12.012;2023-02-11T05:05:13;100624.53;;;5.85;100.00
19600;BME280;9947;57.722;12.012;2023-02-11T05:07:42;100640.41;;;5.74;100.00
19600;BME280;9947;57.722;12.012;2023-02-11T05:10:15;100640.13;;;5.78;100.00
19600;BME280;9947;57.722;12.012;2023-02-11T05:12:42;100616.41;;;5.71;100.00
19600;BME280;9947;57.722;12.012;2023-02-11T05:15:16;100629.72;;;5.72;100.00
19600;BME280;9947;57.722;12.012;2023-02-11T05:17:43;100651.38;;;5.69;100.00
19600;BME280;9947;57.722;12.012;2023-02-11T05:20:24;100654.69;;;5.74;100.00
19600;BME280;9947;57.722;12.012;2023-02-11T05:22:59;100653.19;;;5.69;100.00
19600;BME280;9947;57.722;12.012;2023-02-11T05:25:26;100660.38;;;5.68;100.00
19600;BME280;9947;57.722;12.012;2023-02-11T05:27:59;100673.59;;;5.71;100.00
19600;BME280;9947;57.722;12.012;2023-02-11T05:30:34;100675.19;;;5.75;100.00
19600;BME280;9947;57.722;12.012;2023-02-11T05:33:07;100688.91;;;5.69;100.00
19600;BME280;9947;57.722;12.012;2023-02-11T05:35:40;100686.41;;;5.66;100.00
19600;BME280;9947;57.722;12.012;2023-02-11T05:38:15;100683.22;;;5.60;100.00
19600;BME280;9947;57.722;12.012;2023-02-11T05:40:42;100696.72;;;5.58;100.00
19600;BME280;9947;57.722;12.012;2023-02-11T05:43:16;100704.88;;;5.56;100.00
19600;BME280;9947;57.722;12.012;2023-02-11T05:45:43;100690.69;;;5.54;100.00
19600;BME280;9947;57.722;12.012;2023-02-11T05:48:16;100691.38;;;5.58;100.00
19600;BME280;9947;57.722;12.012;2023-02-11T05:50:44;100693.00;;;5.61;100.00
19600;BME280;9947;57.722;12.012;2023-02-11T05:53:19;100695.00;;;5.57;100.00
19600;BME280;9947;57.722;12.012;2023-02-11T05:55:46;100694.38;;;5.68;100.00
19600;BME280;9947;57.722;12.012;2023-02-11T05:58:19;100692.31;;;5.73;100.00
19600;BME280;9947;57.722;12.012;2023-02-11T06:00:46;100699.84;;;5.66;100.00
19600;BME280;9947;57.722;12.012;2023-02-11T06:03:26;100687.56;;;5.62;100.00
19600;BME280;9947;57.722;12.012;2023-02-11T06:05:53;100687.63;;;5.61;100.00
19600;BME280;9947;57.722;12.012;2023-02-11T06:08:28;100686.31;;;5.68;100.00
19600;BME280;9947;57.722;12.012;2023-02-11T06:10:54;100696.19;;;5.67;100.00
19600;BME280;9947;57.722;12.012;2023-02-11T06:13:28;100712.63;;;5.61;100.00
19600;BME280;9947;57.722;12.012;2023-02-11T06:15:56;100719.72;;;5.62;100.00
19600;BME280;9947;57.722;12.012;2023-02-11T06:18:29;100727.94;;;5.59;100.00
19600;BME280;9947;57.722;12.012;2023-02-11T06:20:58;100713.69;;;5.58;100.00
19600;BME280;9947;57.722;12.012;2023-02-11T06:23:33;100716.28;;;5.60;100.00
19600;BME280;9947;57.722;12.012;2023-02-11T06:26:08;100732.53;;;5.57;100.00
19600;BME280;9947;57.722;12.012;2023-02-11T06:28:48;100736.78;;;5.61;100.00
19600;BME280;9947;57.722;12.012;2023-02-11T06:31:15;100729.69;;;5.60;100.00
19600;BME280;9947;57.722;12.012;2023-02-11T06:33:48;100726.31;;;5.56;100.00
19600;BME280;9947;57.722;12.012;2023-02-11T06:36:18;100711.88;;;5.59;100.00
19600;BME280;9947;57.722;12.012;2023-02-11T06:38:53;100735.31;;;5.55;100.00
19600;BME280;9947;57.722;12.012;2023-02-11T06:41:20;100731.16;;;5.50;100.00
19600;BME280;9947;57.722;12.012;2023-02-11T06:43:53;100739.28;;;5.48;100.00
19600;BME280;9947;57.722;12.012;2023-02-11T06:46:20;100739.28;;;5.48;100.00
19600;BME280;9947;57.722;12.012;2023-02-11T06:48:53;100756.16;;;5.50;100.00
19600;BME280;9947;57.722;12.012;2023-02-11T06:51:20;100762.13;;;5.55;100.00
19600;BME280;9947;57.722;12.012;2023-02-11T06:53:55;100782.19;;;5.48;100.00
19600;BME280;9947;57.722;12.012;2023-02-11T06:56:28;100785.81;;;5.63;100.00
19600;BME280;9947;57.722;12.012;2023-02-11T06:59:01;100785.13;;;5.60;100.00
19600;BME280;9947;57.722;12.012;2023-02-11T07:01:28;100786.78;;;5.62;100.00
19600;BME280;9947;57.722;12.012;2023-02-11T07:04:08;100788.34;;;5.66;100.00
19600;BME280;9947;57.722;12.012;2023-02-11T07:06:35;100800.00;;;5.65;100.00
19600;BME280;9947;57.722;12.012;2023-02-11T07:09:10;100804.25;;;5.69;100.00
19600;BME280;9947;57.722;12.012;2023-02-11T07:11:36;100807.03;;;5.68;100.00
19600;BME280;9947;57.722;12.012;2023-02-11T07:14:10;100817.56;;;5.71;100.00
19600;BME280;9947;57.722;12.012;2023-02-11T07:16:37;100821.47;;;5.65;100.00
19600;BME280;9947;57.722;12.012;2023-02-11T07:19:10;100816.97;;;5.66;100.00
19600;BME280;9947;57.722;12.012;2023-02-11T07:21:37;100826.66;;;5.68;100.00
19600;BME280;9947;57.722;12.012;2023-02-11T07:24:19;100845.53;;;5.67;100.00
19600;BME280;9947;57.722;12.012;2023-02-11T07:26:45;100854.91;;;5.75;100.00
19600;BME280;9947;57.722;12.012;2023-02-11T07:29:19;100853.16;;;5.74;100.00
19600;BME280;9947;57.722;12.012;2023-02-11T07:31:48;100854.03;;;5.75;100.00
19600;BME280;9947;57.722;12.012;2023-02-11T07:34:21;100852.81;;;5.80;100.00
19600;BME280;9947;57.722;12.012;2023-02-11T07:36:48;100874.19;;;5.82;100.00
19600;BME280;9947;57.722;12.012;2023-02-11T07:39:24;100884.84;;;5.83;100.00
19600;BME280;9947;57.722;12.012;2023-02-11T07:41:51;100885.44;;;5.88;100.00
19600;BME280;9947;57.722;12.012;2023-02-11T07:44:25;100892.50;;;5.91;100.00
19600;BME280;9947;57.722;12.012;2023-02-11T07:46:52;100887.28;;;5.88;100.00
19600;BME280;9947;57.722;12.012;2023-02-11T07:49:25;100906.28;;;6.01;100.00
19600;BME280;9947;57.722;12.012;2023-02-11T07:51:52;100920.41;;;6.04;100.00
19600;BME280;9947;57.722;12.012;2023-02-11T07:54:27;100914.53;;;6.13;100.00
19600;BME280;9947;57.722;12.012;2023-02-11T07:56:54;100920.75;;;6.14;100.00
19600;BME280;9947;57.722;12.012;2023-02-11T07:59:27;100927.50;;;6.21;100.00
19600;BME280;9947;57.722;12.012;2023-02-11T08:01:55;100933.66;;;6.23;100.00
19600;BME280;9947;57.722;12.012;2023-02-11T08:04:28;100942.19;;;6.31;100.00
19600;BME280;9947;57.722;12.012;2023-02-11T08:06:55;100954.38;;;6.37;100.00
19600;BME280;9947;57.722;12.012;2023-02-11T08:09:37;100955.59;;;6.47;100.00
19600;BME280;9947;57.722;12.012;2023-02-11T08:12:04;100952.50;;;6.55;100.00
19600;BME280;9947;57.722;12.012;2023-02-11T08:14:37;100958.66;;;6.57;100.00
19600;BME280;9947;57.722;12.012;2023-02-11T08:17:04;100974.50;;;6.61;100.00
19600;BME280;9947;57.722;12.012;2023-02-11T08:19:38;100985.06;;;6.64;100.00
19600;BME280;9947;57.722;12.012;2023-02-11T08:22:05;101004.47;;;6.69;100.00
19600;BME280;9947;57.722;12.012;2023-02-11T08:24:40;101006.03;;;6.73;100.00
19600;BME280;9947;57.722;12.012;2023-02-11T08:27:13;101006.03;;;6.73;100.00
19600;BME280;9947;57.722;12.012;2023-02-11T08:29:46;101023.72;;;6.77;100.00
19600;BME280;9947;57.722;12.012;2023-02-11T08:32:13;101017.13;;;6.83;100.00
19600;BME280;9947;57.722;12.012;2023-02-11T08:34:49;101025.81;;;6.88;100.00
19600;BME280;9947;57.722;12.012;2023-02-11T08:37:17;101038.09;;;6.92;100.00
19600;BME280;9947;57.722;12.012;2023-02-11T08:39:52;101044.16;;;6.96;100.00
19600;BME280;9947;57.722;12.012;2023-02-11T08:42:19;101058.81;;;6.90;100.00
19600;BME280;9947;57.722;12.012;2023-02-11T08:44:52;101070.53;;;6.89;100.00
19600;BME280;9947;57.722;12.012;2023-02-11T08:47:19;101079.53;;;6.88;100.00
19600;BME280;9947;57.722;12.012;2023-02-11T08:49:52;101076.94;;;6.87;100.00
19600;BME280;9947;57.722;12.012;2023-02-11T08:52:19;101087.59;;;6.88;100.00
19600;BME280;9947;57.722;12.012;2023-02-11T08:54:54;101092.53;;;6.96;100.00
19600;BME280;9947;57.722;12.012;2023-02-11T08:57:21;101091.06;;;6.90;100.00
19600;BME280;9947;57.722;12.012;2023-02-11T08:59:54;101093.59;;;6.93;100.00
19600;BME280;9947;57.722;12.012;2023-02-11T09:02:38;101107.97;;;6.92;100.00
19600;BME280;9947;57.722;12.012;2023-02-11T09:05:14;101120.47;;;6.93;100.00
19600;BME280;9947;57.722;12.012;2023-02-11T09:07:54;101127.56;;;6.94;100.00
19600;BME280;9947;57.722;12.012;2023-02-11T09:10:36;101140.94;;;6.96;100.00
19600;BME280;9947;57.722;12.012;2023-02-11T09:13:10;101137.19;;;6.98;100.00
19600;BME280;9947;57.722;12.012;2023-02-11T09:15:37;101149.50;;;7.02;100.00
19600;BME280;9947;57.722;12.012;2023-02-11T09:18:10;101154.56;;;7.08;100.00
19600;BME280;9947;57.722;12.012;2023-02-11T09:20:43;101158.13;;;7.09;100.00
19600;BME280;9947;57.722;12.012;2023-02-11T09:23:16;101170.53;;;7.11;100.00
19600;BME280;9947;57.722;12.012;2023-02-11T09:25:51;101179.38;;;7.14;100.00
19600;BME280;9947;57.722;12.012;2023-02-11T09:28:24;101190.91;;;7.16;100.00
19600;BME280;9947;57.722;12.012;2023-02-11T09:30:51;101196.81;;;7.22;100.00
19600;BME280;9947;57.722;12.012;2023-02-11T09:33:24;101210.53;;;7.33;100.00
19600;BME280;9947;57.722;12.012;2023-02-11T09:35:51;101208.28;;;7.41;100.00
19600;BME280;9947;57.722;12.012;2023-02-11T09:38:24;101215.22;;;7.46;100.00
19600;BME280;9947;57.722;12.012;2023-02-11T09:40:53;101211.00;;;7.57;100.00
19600;BME280;9947;57.722;12.012;2023-02-11T09:43:35;101218.63;;;7.65;100.00
19600;BME280;9947;57.722;12.012;2023-02-11T09:46:14;101225.47;;;7.70;100.00
19600;BME280;9947;57.722;12.012;2023-02-11T09:48:49;101241.44;;;7.73;100.00
19600;BME280;9947;57.722;12.012;2023-02-11T09:51:20;101243.94;;;7.77;100.00
19600;BME280;9947;57.722;12.012;2023-02-11T09:54:02;101250.09;;;7.79;100.00
19600;BME280;9947;57.722;12.012;2023-02-11T09:56:32;101248.38;;;7.93;100.00
19600;BME280;9947;57.722;12.012;2023-02-11T09:59:09;101257.31;;;7.94;100.00
19600;BME280;9947;57.722;12.012;2023-02-11T10:01:40;101252.25;;;8.03;100.00
19600;BME280;9947;57.722;12.012;2023-02-11T10:04:28;101261.38;;;8.17;100.00
19600;BME280;9947;57.722;12.012;2023-02-11T10:07:03;101267.38;;;8.06;100.00
19600;BME280;9947;57.722;12.012;2023-02-11T10:09:51;101277.53;;;8.01;100.00
19600;BME280;9947;57.722;12.012;2023-02-11T10:12:50;101283.88;;;8.00;100.00
19600;BME280;9947;57.722;12.012;2023-02-11T10:15:37;101290.41;;;7.96;100.00
19600;BME280;9947;57.722;12.012;2023-02-11T10:18:45;101297.97;;;7.89;100.00
19600;BME280;9947;57.722;12.012;2023-02-11T10:21:19;101312.47;;;7.87;100.00
19600;BME280;9947;57.722;12.012;2023-02-11T10:24:03;101319.31;;;7.77;100.00
19600;BME280;9947;57.722;12.012;2023-02-11T10:26:32;101334.31;;;7.65;100.00
19600;BME280;9947;57.722;12.012;2023-02-11T10:29:22;101344.75;;;7.71;100.00
19600;BME280;9947;57.722;12.012;2023-02-11T10:31:52;101338.50;;;7.70;100.00
19600;BME280;9947;57.722;12.012;2023-02-11T10:34:26;101343.19;;;7.67;100.00
19600;BME280;9947;57.722;12.012;2023-02-11T10:36:53;101360.03;;;7.70;100.00
19600;BME280;9947;57.722;12.012;2023-02-11T10:39:27;101359.50;;;7.80;100.00
19600;BME280;9947;57.722;12.012;2023-02-11T10:42:05;101363.16;;;7.79;100.00
19600;BME280;9947;57.722;12.012;2023-02-11T10:44:48;101361.41;;;7.78;100.00
19600;BME280;9947;57.722;12.012;2023-02-11T10:47:22;101373.53;;;7.86;100.00
19600;BME280;9947;57.722;12.012;2023-02-11T10:49:58;101377.06;;;7.87;100.00
19600;BME280;9947;57.722;12.012;2023-02-11T10:52:28;101382.28;;;7.90;100.00
19600;BME280;9947;57.722;12.012;2023-02-11T10:55:13;101381.16;;;7.94;100.00
19600;BME280;9947;57.722;12.012;2023-02-11T10:57:42;101397.13;;;7.97;100.00
19600;BME280;9947;57.722;12.012;2023-02-11T11:00:33;101415.56;;;8.04;100.00
19600;BME280;9947;57.722;12.012;2023-02-11T11:03:04;101404.00;;;8.02;100.00
19600;BME280;9947;57.722;12.012;2023-02-11T11:05:46;101414.53;;;8.07;100.00
19600;BME280;9947;57.722;12.012;2023-02-11T11:08:21;101422.44;;;8.10;100.00
19600;BME280;9947;57.722;12.012;2023-02-11T11:11:01;101414.69;;;8.04;100.00
19600;BME280;9947;57.722;12.012;2023-02-11T11:13:36;101421.03;;;8.03;100.00
19600;BME280;9947;57.722;12.012;2023-02-11T11:16:27;101422.75;;;8.04;100.00
19600;BME280;9947;57.722;12.012;2023-02-11T11:19:21;101422.09;;;8.16;100.00
19600;BME280;9947;57.722;12.012;2023-02-11T11:21:49;101434.69;;;8.16;100.00
19600;BME280;9947;57.722;12.012;2023-02-11T11:24:27;101436.53;;;8.15;100.00
19600;BME280;9947;57.722;12.012;2023-02-11T11:26:58;101441.38;;;8.09;100.00
19600;BME280;9947;57.722;12.012;2023-02-11T11:29:35;101449.69;;;8.04;100.00
19600;BME280;9947;57.722;12.012;2023-02-11T11:32:05;101453.50;;;8.00;100.00
19600;BME280;9947;57.722;12.012;2023-02-11T11:34:48;101462.25;;;7.88;100.00
19600;BME280;9947;57.722;12.012;2023-02-11T11:37:26;101468.00;;;7.97;100.00
19600;BME280;9947;57.722;12.012;2023-02-11T11:40:06;101483.13;;;8.00;100.00
19600;BME280;9947;57.722;12.012;2023-02-11T11:42:35;101491.91;;;8.03;100.00
19600;BME280;9947;57.722;12.012;2023-02-11T11:45:23;101497.19;;;8.05;100.00
19600;BME280;9947;57.722;12.012;2023-02-11T11:48:03;101497.84;;;8.10;100.00
19600;BME280;9947;57.722;12.012;2023-02-11T11:50:41;101512.97;;;8.13;100.00
19600;BME280;9947;57.722;12.012;2023-02-11T11:53:22;101519.56;;;8.07;100.00
19600;BME280;9947;57.722;12.012;2023-02-11T11:55:58;101514.88;;;8.11;100.00
19600;BME280;9947;57.722;12.012;2023-02-11T11:58:33;101524.78;;;8.10;100.00
19600;BME280;9947;57.722;12.012;2023-02-11T12:01:09;101534.19;;;8.19;100.00
19600;BME280;9947;57.722;12.012;2023-02-11T12:04:12;101517.66;;;8.25;100.00
19600;BME280;9947;57.722;12.012;2023-02-11T12:07:01;101540.78;;;8.29;100.00
19600;BME280;9947;57.722;12.012;2023-02-11T12:09:48;101546.00;;;8.33;100.00
19600;BME280;9947;57.722;12.012;2023-02-11T12:12:28;101548.97;;;8.27;100.00
19600;BME280;9947;57.722;12.012;2023-02-11T12:15:24;101544.34;;;8.29;100.00
19600;BME280;9947;57.722;12.012;2023-02-11T12:18:21;101557.63;;;8.34;100.00
19600;BME280;9947;57.722;12.012;2023-02-11T12:21:06;101563.22;;;8.47;100.00
19600;BME280;9947;57.722;12.012;2023-02-11T12:23:54;101567.13;;;8.57;100.00
19600;BME280;9947;57.722;12.012;2023-02-11T12:26:30;101577.22;;;8.53;100.00
19600;BME280;9947;57.722;12.012;2023-02-11T12:29:13;101583.38;;;8.55;100.00
19600;BME280;9947;57.722;12.012;2023-02-11T12:31:53;101591.63;;;8.52;100.00
19600;BME280;9947;57.722;12.012;2023-02-11T12:34:44;101594.94;;;8.42;100.00
19600;BME280;9947;57.722;12.012;2023-02-11T12:37:32;101604.91;;;8.40;100.00
19600;BME280;9947;57.722;12.012;2023-02-11T12:40:14;101607.44;;;8.43;100.00
19600;BME280;9947;57.722;12.012;2023-02-11T12:42:57;101610.41;;;8.54;100.00
19600;BME280;9947;57.722;12.012;2023-02-11T12:45:57;101604.78;;;8.58;100.00
19600;BME280;9947;57.722;12.012;2023-02-11T12:48:51;101609.84;;;8.64;100.00
19600;BME280;9947;57.722;12.012;2023-02-11T12:51:31;101622.06;;;8.54;100.00
19600;BME280;9947;57.722;12.012;2023-02-11T12:54:21;101621.25;;;8.37;100.00
19600;BME280;9947;57.722;12.012;2023-02-11T12:56:52;101622.47;;;8.29;100.00
19600;BME280;9947;57.722;12.012;2023-02-11T12:59:40;101621.41;;;8.33;100.00
19600;BME280;9947;57.722;12.012;2023-02-11T13:02:29;101627.31;;;8.23;100.00
19600;BME280;9947;57.722;12.012;2023-02-11T13:05:14;101631.06;;;8.20;100.00
19600;BME280;9947;57.722;12.012;2023-02-11T13:07:54;101635.66;;;8.18;100.00
19600;BME280;9947;57.722;12.012;2023-02-11T13:10:27;101623.44;;;8.28;100.00
19600;BME280;9947;57.722;12.012;2023-02-11T13:13:04;101641.84;;;8.38;100.00
19600;BME280;9947;57.722;12.012;2023-02-11T13:15:46;101641.16;;;8.34;100.00
19600;BME280;9947;57.722;12.012;2023-02-11T13:18:32;101649.16;;;8.36;100.00
19600;BME280;9947;57.722;12.012;2023-02-11T13:21:20;101649.94;;;8.38;100.00
19600;BME280;9947;57.722;12.012;2023-02-11T13:24:06;101656.19;;;8.38;100.00
19600;BME280;9947;57.722;12.012;2023-02-11T13:26:41;101656.44;;;8.33;100.00
19600;BME280;9947;57.722;12.012;2023-02-11T13:29:25;101669.94;;;8.32;100.00
19600;BME280;9947;57.722;12.012;2023-02-11T13:32:05;101662.81;;;8.31;100.00
19600;BME280;9947;57.722;12.012;2023-02-11T13:34:56;101667.66;;;8.24;100.00
19600;BME280;9947;57.722;12.012;2023-02-11T13:37:25;101676.53;;;8.26;100.00
19600;BME280;9947;57.722;12.012;2023-02-11T13:40:03;101669.63;;;8.21;100.00